Time;durP1;ratioP1;P1;durP2;ratioP2;P2;SDS_P1;SDS_P2;PMS_P1;PMS_P2;Temp;Humidity;BMP_temperature;BMP_pressure;BME280_temperature;BME280_humidity;BME280_pressure;Samples;Min_cycle;Max_cycle;Signal;HPM_P1;HPM_P2
2023/08/06 00:01:36;;;;;;;2.50;1.50;;;;;;;18.89;nan;98778.19;4980292;28;20564;-76
2023/08/06 00:04:02;;;;;;;2.27;2.03;;;;;;;18.85;nan;98782.16;4984708;28;20250;-76
2023/08/06 00:06:27;;;;;;;2.23;1.70;;;;;;;18.81;nan;98781.69;4983906;28;20282;-77
2023/08/06 00:08:53;;;;;;;3.20;1.80;;;;;;;18.74;nan;98792.19;4985817;28;20290;-77
2023/08/06 00:11:18;;;;;;;3.30;1.80;;;;;;;18.67;nan;98769.88;4985243;28;20948;-77
2023/08/06 00:13:43;;;;;;;2.73;1.47;;;;;;;18.60;nan;98781.38;4989664;28;20199;-76
2023/08/06 00:16:12;;;;;;;2.10;1.90;;;;;;;18.53;nan;98770.59;4983527;28;20203;-78
2023/08/06 00:18:39;;;;;;;1.47;1.30;;;;;;;18.46;nan;98777.56;4987615;28;20258;-77
2023/08/06 00:21:04;;;;;;;1.63;1.53;;;;;;;18.42;nan;98778.91;4983886;28;20462;-77
2023/08/06 00:23:30;;;;;;;2.37;1.87;;;;;;;18.35;nan;98779.56;4985640;28;20427;-78
2023/08/06 00:25:55;;;;;;;3.30;1.90;;;;;;;18.34;nan;98775.25;4989547;28;20195;-76
2023/08/06 00:28:21;;;;;;;2.27;1.60;;;;;;;18.31;nan;98775.59;4989349;28;20199;-77
2023/08/06 00:30:51;;;;;;;1.80;1.33;;;;;;;18.34;nan;98787.72;4969360;28;20203;-76
2023/08/06 00:33:17;;;;;;;3.20;2.30;;;;;;;18.37;nan;98783.91;4987022;28;20205;-77
2023/08/06 00:35:42;;;;;;;3.10;2.10;;;;;;;18.42;nan;98774.44;4984149;28;20447;-78
2023/08/06 00:38:07;;;;;;;4.43;2.60;;;;;;;18.44;nan;98775.06;4990010;28;20187;-77
2023/08/06 00:40:33;;;;;;;2.80;1.73;;;;;;;18.48;nan;98767.59;4968154;28;20274;-78
2023/08/06 00:42:58;;;;;;;2.30;1.83;;;;;;;18.53;nan;98759.94;4977988;28;20752;-77
2023/08/06 00:45:25;;;;;;;2.73;1.60;;;;;;;18.53;nan;98754.63;4986122;28;20203;-77
2023/08/06 00:47:50;;;;;;;3.97;1.87;;;;;;;18.50;nan;98739.84;4985477;28;20215;-77
2023/08/06 00:50:17;;;;;;;3.43;1.87;;;;;;;18.48;nan;98736.50;4976432;28;20462;-76
2023/08/06 00:52:43;;;;;;;5.20;1.97;;;;;;;18.44;nan;98734.34;4986806;28;20298;-76
2023/08/06 00:55:09;;;;;;;1.50;1.40;;;;;;;18.40;nan;98730.38;4990855;28;20432;-77
2023/08/06 00:57:35;;;;;;;1.63;1.50;;;;;;;18.38;nan;98724.41;4988340;28;20206;-78
2023/08/06 01:00:01;;;;;;;3.70;1.93;;;;;;;18.36;nan;98743.16;4986796;28;20813;-77
2023/08/06 01:02:26;;;;;;;2.53;1.90;;;;;;;18.36;nan;98737.84;4982857;28;20230;-77
2023/08/06 01:04:51;;;;;;;3.07;1.30;;;;;;;18.37;nan;98733.38;4985851;28;20203;-78
2023/08/06 01:07:35;;;;;;;3.10;1.73;;;;;;;18.38;nan;98729.72;4989815;28;20218;-77
2023/08/06 01:10:29;;;;;;;1.43;1.33;;;;;;;18.39;nan;98732.22;4973459;28;20218;-76
2023/08/06 01:13:11;;;;;;;2.57;1.30;;;;;;;18.40;nan;98733.06;4987263;28;20503;-77
2023/08/06 01:15:49;;;;;;;2.93;2.00;;;;;;;18.42;nan;98737.19;4979151;28;21558;-77
2023/08/06 01:18:15;;;;;;;1.30;1.20;;;;;;;18.44;nan;98734.34;4987865;28;20462;-77
2023/08/06 01:20:40;;;;;;;1.63;1.10;;;;;;;18.48;nan;98735.69;4989683;28;20454;-78
2023/08/06 01:23:06;;;;;;;2.20;1.20;;;;;;;18.50;nan;98739.84;4986110;28;20422;-77
2023/08/06 01:25:49;;;;;;;2.13;1.93;;;;;;;18.54;nan;98733.16;4988171;28;20274;-78
2023/08/06 01:28:41;;;;;;;2.17;1.57;;;;;;;18.56;nan;98733.00;4987199;28;20215;-77
2023/08/06 01:31:14;;;;;;;1.50;1.27;;;;;;;18.56;nan;98738.34;4988188;28;20461;-78
2023/08/06 01:33:44;;;;;;;2.03;1.20;;;;;;;18.57;nan;98739.97;4983519;28;20436;-77
2023/08/06 01:36:10;;;;;;;2.70;1.80;;;;;;;18.56;nan;98743.66;4989613;28;20451;-78
2023/08/06 01:38:35;;;;;;;2.50;1.60;;;;;;;18.57;nan;98729.34;4983167;28;20451;-77
2023/08/06 01:41:00;;;;;;;5.03;1.70;;;;;;;18.56;nan;98725.03;4986686;28;20589;-77
2023/08/06 01:43:26;;;;;;;2.57;1.57;;;;;;;18.53;nan;98723.53;5005288;23;20816;-84
2023/08/06 01:45:51;;;;;;;3.33;1.47;;;;;;;18.48;nan;98722.41;4991324;28;22184;-84
2023/08/06 01:48:17;;;;;;;1.90;1.30;;;;;;;18.42;nan;98726.56;5002131;28;20559;-82
2023/08/06 01:50:42;;;;;;;3.83;1.40;;;;;;;18.41;nan;98730.22;4996814;28;20242;-81
2023/08/06 01:53:08;;;;;;;2.23;1.90;;;;;;;18.38;nan;98730.53;4999629;28;20215;-81
2023/08/06 01:55:33;;;;;;;4.40;1.70;;;;;;;18.37;nan;98728.91;4995372;28;20199;-81
2023/08/06 01:57:59;;;;;;;3.07;1.63;;;;;;;18.38;nan;98738.53;5003653;28;20191;-82
2023/08/06 02:00:24;;;;;;;2.57;1.93;;;;;;;18.38;nan;98743.03;5001381;28;20218;-82
2023/08/06 02:02:50;;;;;;;3.23;1.93;;;;;;;18.34;nan;98745.19;5001417;28;20211;-81
2023/08/06 02:05:15;;;;;;;5.10;2.07;;;;;;;18.33;nan;98749.69;5003328;28;20469;-82
2023/08/06 02:07:42;;;;;;;3.43;1.40;;;;;;;18.32;nan;98748.00;5000709;28;20219;-84
2023/08/06 02:10:08;;;;;;;2.90;2.00;;;;;;;18.21;nan;98745.69;4997021;28;20428;-81
2023/08/06 02:12:33;;;;;;;1.63;1.53;;;;;;;18.12;nan;98747.53;4995847;28;20195;-79
2023/08/06 02:14:59;;;;;;;2.93;1.83;;;;;;;18.04;nan;98749.38;4972174;28;21173;-79
2023/08/06 02:17:24;;;;;;;2.20;1.47;;;;;;;17.97;nan;98754.50;4974367;28;20191;-79
2023/08/06 02:19:49;;;;;;;2.47;1.40;;;;;;;17.91;nan;98763.16;4972673;28;20211;-79
2023/08/06 02:22:15;;;;;;;2.77;1.90;;;;;;;17.81;nan;98755.31;4988759;28;20238;-80
2023/08/06 02:24:41;;;;;;;4.63;1.30;;;;;;;17.70;nan;98745.00;4991977;28;20231;-79
2023/08/06 02:27:06;;;;;;;3.20;1.70;;;;;;;17.58;nan;98748.94;4971814;28;20215;-79
2023/08/06 02:29:32;;;;;;;3.50;2.10;;;;;;;17.51;nan;98753.25;4990170;28;20203;-79
2023/08/06 02:31:58;;;;;;;2.77;1.80;;;;;;;17.46;nan;98746.59;4989521;28;21008;-79
2023/08/06 02:34:23;;;;;;;4.23;1.70;;;;;;;17.44;nan;98756.56;4994542;28;20195;-80
2023/08/06 02:36:48;;;;;;;1.93;1.77;;;;;;;17.42;nan;98757.72;4979708;28;20199;-78
2023/08/06 02:39:14;;;;;;;4.33;2.40;;;;;;;17.36;nan;98766.31;4993369;28;20188;-79
2023/08/06 02:41:39;;;;;;;2.43;1.70;;;;;;;17.32;nan;98757.84;4996990;28;20214;-78
2023/08/06 02:44:05;;;;;;;3.33;1.83;;;;;;;17.32;nan;98759.69;4996484;28;20195;-80
2023/08/06 02:46:30;;;;;;;2.83;1.67;;;;;;;17.30;nan;98753.69;4995016;28;20219;-81
2023/08/06 02:48:56;;;;;;;5.27;1.63;;;;;;;17.25;nan;98756.84;4975624;28;20240;-79
2023/08/06 02:51:21;;;;;;;3.20;1.80;;;;;;;17.21;nan;98751.03;4979607;28;20473;-79
2023/08/06 02:53:48;;;;;;;1.90;1.70;;;;;;;17.21;nan;98756.34;4996245;28;20214;-79
2023/08/06 02:56:15;;;;;;;4.07;1.80;;;;;;;17.21;nan;98753.69;4996276;28;20202;-79
2023/08/06 02:58:55;;;;;;;2.23;1.20;;;;;;;17.22;nan;98738.59;4994677;28;20484;-79
2023/08/06 03:01:30;;;;;;;1.73;1.50;;;;;;;17.23;nan;98745.56;4991026;28;20456;-84
2023/08/06 03:04:03;;;;;;;1.93;1.73;;;;;;;17.23;nan;98743.75;4977460;28;20449;-81
2023/08/06 03:06:34;;;;;;;2.83;1.73;;;;;;;17.24;nan;98741.91;4981666;28;20469;-81
2023/08/06 03:09:01;;;;;;;2.53;1.70;;;;;;;17.22;nan;98744.72;4995878;28;20440;-78
2023/08/06 03:11:26;;;;;;;6.03;3.30;;;;;;;17.22;nan;98730.63;4997444;28;20486;-79
2023/08/06 03:13:57;;;;;;;2.00;1.10;;;;;;;17.20;nan;98735.25;4982759;28;20261;-79
2023/08/06 03:16:22;;;;;;;2.27;1.83;;;;;;;17.17;nan;98741.72;4991621;28;20454;-81
2023/08/06 03:18:54;;;;;;;1.70;1.23;;;;;;;17.15;nan;98737.59;4998072;28;20202;-80
2023/08/06 03:21:20;;;;;;;1.67;1.10;;;;;;;17.11;nan;98733.56;4995167;28;20199;-82
2023/08/06 03:23:49;;;;;;;1.80;1.00;;;;;;;17.06;nan;98738.53;4998483;28;20468;-79
2023/08/06 03:26:15;;;;;;;1.60;1.27;;;;;;;16.99;nan;98741.81;4993484;28;20214;-80
2023/08/06 03:28:40;;;;;;;1.97;1.00;;;;;;;16.94;nan;98748.59;4979580;28;20459;-81
2023/08/06 03:31:06;;;;;;;1.33;0.70;;;;;;;16.85;nan;98747.75;4997585;28;20602;-81
2023/08/06 03:33:39;;;;;;;4.00;1.10;;;;;;;16.80;nan;98745.56;4990418;28;20517;-79
2023/08/06 03:36:10;;;;;;;2.00;1.00;;;;;;;16.75;nan;98737.22;4992077;28;20430;-80
2023/08/06 03:38:35;;;;;;;2.23;0.90;;;;;;;16.70;nan;98744.81;4979624;28;20198;-79
2023/08/06 03:41:04;;;;;;;1.00;0.77;;;;;;;16.65;nan;98740.97;4993421;28;20456;-81
2023/08/06 03:43:30;;;;;;;3.90;0.90;;;;;;;16.60;nan;98742.25;4996932;28;20451;-80
2023/08/06 03:45:55;;;;;;;3.00;1.00;;;;;;;16.56;nan;98740.09;4996032;28;20199;-79
2023/08/06 03:48:21;;;;;;;1.83;1.00;;;;;;;16.48;nan;98732.94;4996720;28;20220;-80
2023/08/06 03:50:46;;;;;;;2.43;0.80;;;;;;;16.43;nan;98732.56;4996254;28;20209;-80
2023/08/06 03:53:14;;;;;;;1.13;0.60;;;;;;;16.40;nan;98740.81;4995898;28;20213;-79
2023/08/06 03:55:39;;;;;;;1.23;0.90;;;;;;;16.35;nan;98735.16;4994255;28;20211;-80
2023/08/06 03:58:05;;;;;;;2.40;0.90;;;;;;;16.29;nan;98744.56;4992512;28;20193;-79
2023/08/06 04:00:31;;;;;;;1.23;0.80;;;;;;;16.22;nan;98743.50;4994695;28;20204;-80
2023/08/06 04:02:56;;;;;;;1.23;0.57;;;;;;;16.14;nan;98741.63;4999342;28;20251;-80
2023/08/06 04:05:22;;;;;;;4.00;1.00;;;;;;;16.07;nan;98748.53;5002069;28;20190;-79
2023/08/06 04:07:48;;;;;;;1.10;0.90;;;;;;;16.03;nan;98756.94;4999662;28;20212;-79
2023/08/06 04:10:13;;;;;;;1.53;0.83;;;;;;;15.96;nan;98767.34;4982986;28;20968;-79
2023/08/06 04:12:39;;;;;;;1.50;0.90;;;;;;;15.90;nan;98770.56;4998317;28;20236;-80
2023/08/06 04:15:06;;;;;;;1.02;0.80;;;;;;;15.87;nan;98778.81;5001033;28;20207;-79
2023/08/06 04:17:31;;;;;;;1.00;0.85;;;;;;;15.81;nan;98779.44;4999021;28;20193;-79
2023/08/06 04:19:59;;;;;;;1.63;0.77;;;;;;;15.78;nan;98793.81;5000753;28;20200;-79
2023/08/06 04:22:25;;;;;;;1.08;0.80;;;;;;;15.77;nan;98789.50;4998148;28;20220;-79
2023/08/06 04:24:50;;;;;;;2.00;1.57;;;;;;;15.77;nan;98793.94;4983936;28;20200;-79
2023/08/06 04:27:17;;;;;;;2.30;1.30;;;;;;;15.75;nan;98806.53;5002128;28;20219;-80
2023/08/06 04:29:43;;;;;;;2.08;1.00;;;;;;;15.72;nan;98783.00;4980889;28;20242;-79
2023/08/06 04:32:10;;;;;;;2.43;1.10;;;;;;;15.71;nan;98776.84;4996270;28;20244;-79
2023/08/06 04:34:40;;;;;;;1.90;0.85;;;;;;;15.73;nan;98774.06;4980970;28;20189;-79
2023/08/06 04:37:05;;;;;;;3.00;1.53;;;;;;;15.75;nan;98772.94;4996656;28;20435;-79
2023/08/06 04:39:31;;;;;;;2.47;0.90;;;;;;;15.76;nan;98773.75;4980545;28;20673;-79
2023/08/06 04:41:59;;;;;;;3.10;1.30;;;;;;;15.75;nan;98780.88;5001081;28;20265;-80
2023/08/06 04:44:26;;;;;;;1.70;1.30;;;;;;;15.74;nan;98783.66;4999048;28;20293;-79
2023/08/06 04:46:51;;;;;;;3.27;2.23;;;;;;;15.73;nan;98780.19;4980917;28;20219;-80
2023/08/06 04:49:18;;;;;;;2.63;1.40;;;;;;;15.69;nan;98774.38;4996228;28;20179;-79
2023/08/06 04:51:43;;;;;;;5.90;1.25;;;;;;;15.68;nan;98783.28;4998524;28;20240;-80
2023/08/06 04:54:09;;;;;;;3.83;1.60;;;;;;;15.69;nan;98781.47;4998665;28;20227;-80
2023/08/06 04:56:34;;;;;;;1.58;1.30;;;;;;;15.70;nan;98786.63;5000101;28;20196;-81
2023/08/06 04:59:00;;;;;;;4.37;1.00;;;;;;;15.61;nan;98779.56;5000130;28;20216;-80
2023/08/06 05:01:25;;;;;;;3.03;1.97;;;;;;;15.61;nan;98787.50;5002282;28;20198;-80
2023/08/06 05:03:51;;;;;;;2.30;1.20;;;;;;;15.60;nan;98791.09;5000339;28;20289;-82
2023/08/06 05:06:16;;;;;;;4.35;1.60;;;;;;;15.52;nan;98796.31;5003141;28;20443;-80
2023/08/06 05:08:42;;;;;;;3.33;1.10;;;;;;;15.47;nan;98796.78;5003381;28;20211;-81
2023/08/06 05:11:07;;;;;;;3.43;1.77;;;;;;;15.45;nan;98789.97;5000619;28;20584;-82
2023/08/06 05:13:33;;;;;;;2.10;1.50;;;;;;;15.40;nan;98786.94;4999350;28;20203;-82
2023/08/06 05:15:58;;;;;;;4.73;1.47;;;;;;;15.35;nan;98794.47;4996981;28;20208;-81
2023/08/06 05:18:24;;;;;;;1.53;1.40;;;;;;;15.31;nan;98801.88;4998447;28;20305;-82
2023/08/06 05:20:49;;;;;;;2.53;1.33;;;;;;;15.26;nan;98802.31;5000557;28;20203;-80
2023/08/06 05:23:15;;;;;;;2.17;1.30;;;;;;;15.23;nan;98804.44;4996477;28;20214;-83
2023/08/06 05:25:40;;;;;;;3.73;1.90;;;;;;;15.21;nan;98815.16;4999370;28;20212;-80
2023/08/06 05:28:06;;;;;;;3.13;1.47;;;;;;;15.14;nan;98814.06;4998338;28;20219;-81
2023/08/06 05:30:31;;;;;;;1.67;1.17;;;;;;;15.17;nan;98811.13;4997576;28;20294;-83
2023/08/06 05:32:57;;;;;;;4.30;1.60;;;;;;;15.18;nan;98812.81;4999900;28;20846;-82
2023/08/06 05:35:23;;;;;;;5.97;1.80;;;;;;;15.20;nan;98812.63;5001381;28;20234;-80
2023/08/06 05:37:50;;;;;;;7.00;2.00;;;;;;;15.25;nan;98816.50;4995803;28;20290;-81
2023/08/06 05:40:15;;;;;;;6.20;1.60;;;;;;;15.26;nan;98826.13;4999060;28;20211;-83
2023/08/06 05:42:41;;;;;;;2.90;1.10;;;;;;;15.30;nan;98820.53;4996317;28;20240;-81
2023/08/06 05:45:07;;;;;;;5.47;1.90;;;;;;;15.31;nan;98823.06;4998907;28;20220;-84
2023/08/06 05:47:33;;;;;;;1.90;1.45;;;;;;;15.32;nan;98831.81;5000108;28;20224;-82
2023/08/06 05:49:58;;;;;;;4.53;1.40;;;;;;;15.33;nan;98826.38;5000531;28;20199;-81
2023/08/06 05:52:24;;;;;;;4.90;1.47;;;;;;;15.36;nan;98817.31;4995313;28;20221;-82
2023/08/06 05:54:49;;;;;;;1.90;1.17;;;;;;;15.40;nan;98835.38;4999180;28;20201;-85
2023/08/06 05:57:15;;;;;;;3.53;2.23;;;;;;;15.39;nan;98825.81;4996047;28;20868;-82
2023/08/06 05:59:41;;;;;;;11.40;2.33;;;;;;;15.40;nan;98834.56;4998497;28;20948;-79
2023/08/06 06:02:07;;;;;;;3.05;1.30;;;;;;;15.38;nan;98837.34;4996253;28;20213;-81
2023/08/06 06:04:32;;;;;;;3.40;1.70;;;;;;;15.41;nan;98836.22;5000960;28;20750;-80
2023/08/06 06:06:58;;;;;;;3.27;1.50;;;;;;;15.47;nan;98831.19;4994513;28;20490;-80
2023/08/06 06:09:23;;;;;;;3.07;1.80;;;;;;;15.53;nan;98840.34;4994438;28;20243;-80
2023/08/06 06:11:49;;;;;;;3.80;1.90;;;;;;;15.59;nan;98839.75;4995728;28;20283;-82
2023/08/06 06:14:16;;;;;;;5.40;1.40;;;;;;;15.62;nan;98839.44;4997611;28;20206;-81
2023/08/06 06:16:42;;;;;;;3.35;1.40;;;;;;;15.63;nan;98846.41;4998561;28;20197;-83
2023/08/06 06:19:07;;;;;;;4.23;1.27;;;;;;;15.58;nan;98848.69;4997570;28;20200;-80
2023/08/06 06:21:33;;;;;;;3.13;1.30;;;;;;;15.53;nan;98852.72;4997722;28;20223;-81
2023/08/06 06:23:59;;;;;;;2.20;1.90;;;;;;;15.45;nan;98850.84;4998088;28;20308;-81
2023/08/06 06:26:24;;;;;;;1.67;1.47;;;;;;;15.40;nan;98861.84;4995209;28;20228;-81
2023/08/06 06:28:50;;;;;;;1.97;1.20;;;;;;;15.38;nan;98870.91;4993172;28;20324;-81
2023/08/06 06:31:15;;;;;;;4.77;1.83;;;;;;;15.35;nan;98866.75;4996886;28;20228;-79
2023/08/06 06:33:41;;;;;;;3.83;1.17;;;;;;;15.37;nan;98874.56;4993968;28;20204;-80
2023/08/06 06:36:07;;;;;;;3.75;1.23;;;;;;;15.38;nan;98884.16;4996541;28;20592;-84
2023/08/06 06:38:34;;;;;;;2.63;1.25;;;;;;;15.36;nan;98870.22;4996400;28;20200;-78
2023/08/06 06:40:59;;;;;;;3.25;1.30;;;;;;;15.33;nan;98875.81;4993983;28;20199;-78
2023/08/06 06:43:25;;;;;;;1.80;1.30;;;;;;;15.31;nan;98868.03;4994724;28;20225;-80
2023/08/06 06:45:58;;;;;;;3.10;0.97;;;;;;;15.31;nan;98872.47;4997906;28;20207;-81
2023/08/06 06:48:28;;;;;;;1.95;1.58;;;;;;;15.30;nan;98873.47;4997928;28;20474;-79
2023/08/06 06:50:53;;;;;;;1.33;1.20;;;;;;;15.26;nan;98880.88;4993785;28;20290;-80
2023/08/06 06:53:19;;;;;;;3.10;2.90;;;;;;;15.25;nan;98880.00;4994560;28;20716;-80
2023/08/06 06:55:44;;;;;;;2.40;1.03;;;;;;;15.27;nan;98875.41;4992362;28;20206;-78
2023/08/06 06:58:10;;;;;;;5.40;1.40;;;;;;;15.25;nan;98884.47;4995331;28;20299;-81
2023/08/06 07:00:37;;;;;;;3.13;1.30;;;;;;;15.28;nan;98876.25;4996665;28;20551;-80
2023/08/06 07:03:02;;;;;;;2.35;0.90;;;;;;;15.27;nan;98882.53;4997319;28;20207;-79
2023/08/06 07:05:28;;;;;;;2.03;1.00;;;;;;;15.29;nan;98890.31;4995904;28;20436;-79
2023/08/06 07:07:53;;;;;;;1.30;0.80;;;;;;;15.28;nan;98894.75;4998784;28;21276;-80
2023/08/06 07:10:18;;;;;;;1.90;0.80;;;;;;;15.27;nan;98883.34;5000055;28;20203;-79
2023/08/06 07:12:44;;;;;;;2.20;1.47;;;;;;;15.30;nan;98891.97;4991732;28;20211;-81
2023/08/06 07:15:10;;;;;;;3.30;1.10;;;;;;;15.33;nan;98886.41;4996207;28;21101;-81
2023/08/06 07:17:35;;;;;;;2.90;0.80;;;;;;;15.40;nan;98890.13;4990705;28;20203;-80
2023/08/06 07:20:00;;;;;;;1.23;1.00;;;;;;;15.45;nan;98885.25;4995374;28;20637;-79
2023/08/06 07:22:26;;;;;;;1.10;0.87;;;;;;;15.51;nan;98889.13;4995800;28;20208;-81
2023/08/06 07:24:51;;;;;;;2.30;0.80;;;;;;;15.52;nan;98894.25;4995767;28;20215;-79
2023/08/06 07:27:17;;;;;;;1.37;1.10;;;;;;;15.55;nan;98895.75;4990700;28;20215;-79
2023/08/06 07:29:42;;;;;;;1.67;0.80;;;;;;;15.57;nan;98897.28;4995134;28;20295;-80
2023/08/06 07:32:08;;;;;;;1.07;0.73;;;;;;;15.58;nan;98906.91;4991780;28;20208;-81
2023/08/06 07:34:33;;;;;;;1.00;0.83;;;;;;;15.58;nan;98901.63;4994829;28;20710;-80
2023/08/06 07:36:59;;;;;;;1.73;0.60;;;;;;;15.60;nan;98904.94;4994020;28;20740;-79
2023/08/06 07:39:25;;;;;;;2.30;0.83;;;;;;;15.62;nan;98921.50;4992709;28;20195;-80
2023/08/06 07:41:50;;;;;;;1.40;0.90;;;;;;;15.66;nan;98914.94;4989827;28;20204;-80
2023/08/06 07:44:16;;;;;;;0.70;0.60;;;;;;;15.70;nan;98918.16;5059968;23;20310;-78
2023/08/06 07:46:41;;;;;;;0.70;0.60;;;;;;;15.74;nan;98924.00;4979667;28;20278;-79
2023/08/06 07:49:07;;;;;;;2.40;0.90;;;;;;;15.80;nan;98920.78;4983175;28;20534;-78
2023/08/06 07:51:32;;;;;;;1.20;1.10;;;;;;;15.82;nan;98929.38;4980952;28;20282;-79
2023/08/06 07:53:57;;;;;;;2.90;1.50;;;;;;;15.83;nan;98921.31;4977200;28;20609;-78
2023/08/06 07:56:23;;;;;;;1.13;0.60;;;;;;;15.82;nan;98913.50;4976208;28;20211;-80
2023/08/06 07:58:48;;;;;;;1.57;0.80;;;;;;;15.82;nan;98918.78;4975678;28;20211;-79
2023/08/06 08:01:14;;;;;;;1.20;0.60;;;;;;;15.84;nan;98922.13;4979065;28;20190;-80
2023/08/06 08:03:39;;;;;;;2.50;0.70;;;;;;;15.87;nan;98930.59;4976339;28;20212;-82
2023/08/06 08:06:05;;;;;;;1.70;0.70;;;;;;;15.92;nan;98920.41;4974929;28;20952;-78
2023/08/06 08:08:30;;;;;;;1.80;0.80;;;;;;;15.97;nan;98927.91;4970515;28;20221;-79
2023/08/06 08:10:55;;;;;;;3.20;0.97;;;;;;;15.99;nan;98936.53;4970946;28;20276;-78
2023/08/06 08:13:21;;;;;;;0.70;0.67;;;;;;;16.06;nan;98934.13;4978090;28;20219;-78
2023/08/06 08:15:46;;;;;;;0.90;0.73;;;;;;;16.11;nan;98930.03;4973606;28;20205;-78
2023/08/06 08:18:12;;;;;;;0.70;0.50;;;;;;;16.16;nan;98926.94;4972849;28;20196;-79
2023/08/06 08:20:37;;;;;;;0.60;0.50;;;;;;;16.19;nan;98928.47;4977171;28;20200;-78
2023/08/06 08:23:03;;;;;;;0.93;0.90;;;;;;;16.23;nan;98937.78;4979329;28;20244;-78
2023/08/06 08:25:28;;;;;;;0.60;0.50;;;;;;;16.27;nan;98936.50;4957159;28;20263;-78
2023/08/06 08:27:55;;;;;;;0.70;0.60;;;;;;;16.31;nan;98935.19;4971480;28;20377;-80
2023/08/06 08:30:21;;;;;;;0.77;0.50;;;;;;;16.30;nan;98937.03;4965888;28;20218;-80
2023/08/06 08:32:46;;;;;;;1.00;0.70;;;;;;;16.29;nan;98937.19;4967882;28;20212;-81
2023/08/06 08:35:12;;;;;;;2.30;0.70;;;;;;;16.29;nan;98942.50;4968623;28;20872;-79
2023/08/06 08:37:39;;;;;;;0.70;0.60;;;;;;;16.30;nan;98949.44;4971652;28;20552;-78
2023/08/06 08:40:06;;;;;;;1.43;0.80;;;;;;;16.26;nan;98946.28;4970689;28;20664;-82
2023/08/06 08:42:31;;;;;;;0.70;0.60;;;;;;;16.22;nan;98944.91;4966832;28;20455;-78
2023/08/06 08:44:57;;;;;;;0.90;0.60;;;;;;;16.22;nan;98952.84;4951597;28;20226;-79
2023/08/06 08:47:24;;;;;;;3.23;0.80;;;;;;;16.23;nan;98954.53;4954668;28;20242;-79
2023/08/06 08:49:54;;;;;;;1.00;0.70;;;;;;;16.23;nan;98959.81;4956062;28;20225;-79
2023/08/06 08:52:20;;;;;;;1.70;0.70;;;;;;;16.24;nan;98971.25;4958698;28;20516;-79
2023/08/06 08:54:51;;;;;;;1.35;0.70;;;;;;;16.24;nan;98976.56;4953099;28;20200;-78
2023/08/06 08:57:17;;;;;;;0.70;0.60;;;;;;;16.22;nan;98970.56;4957209;28;20202;-79
2023/08/06 08:59:42;;;;;;;0.93;0.77;;;;;;;16.25;nan;98980.84;4955614;28;20456;-79
2023/08/06 09:02:11;;;;;;;0.83;0.60;;;;;;;16.25;nan;98988.81;4954777;28;20198;-79
2023/08/06 09:04:37;;;;;;;0.70;0.70;;;;;;;16.24;nan;98982.69;4953306;28;20194;-81
2023/08/06 09:07:05;;;;;;;0.70;0.60;;;;;;;16.25;nan;98980.84;4953529;28;20579;-78
2023/08/06 09:09:37;;;;;;;1.02;0.60;;;;;;;16.26;nan;98986.03;4953115;28;20212;-80
2023/08/06 09:12:16;;;;;;;1.60;0.60;;;;;;;16.29;nan;98983.06;4951747;28;20259;-79
2023/08/06 09:14:42;;;;;;;1.25;0.88;;;;;;;16.34;nan;98987.94;4952380;28;20227;-80
2023/08/06 09:17:08;;;;;;;0.90;0.68;;;;;;;16.38;nan;98992.75;4954003;28;20195;-78
2023/08/06 09:19:34;;;;;;;1.33;0.60;;;;;;;16.45;nan;98989.53;4954378;28;20217;-78
2023/08/06 09:21:59;;;;;;;0.60;0.50;;;;;;;16.49;nan;98986.41;4954674;28;20212;-82
2023/08/06 09:24:26;;;;;;;0.70;0.70;;;;;;;16.53;nan;98998.41;4954247;28;20227;-78
2023/08/06 09:26:52;;;;;;;0.70;0.60;;;;;;;16.57;nan;98994.44;4954697;28;20210;-78
2023/08/06 09:29:17;;;;;;;0.60;0.50;;;;;;;16.63;nan;99008.09;4955380;28;21011;-82
2023/08/06 09:31:45;;;;;;;0.70;0.60;;;;;;;16.67;nan;99001.50;4957183;28;20203;-78
2023/08/06 09:34:14;;;;;;;0.90;0.60;;;;;;;16.75;nan;99001.59;4953174;28;20493;-81
2023/08/06 09:36:42;;;;;;;0.80;0.77;;;;;;;16.81;nan;99009.78;4957828;28;20824;-79
2023/08/06 09:39:15;;;;;;;0.70;0.60;;;;;;;16.85;nan;99013.00;4957037;28;20465;-82
2023/08/06 09:41:41;;;;;;;1.00;0.60;;;;;;;16.87;nan;99011.00;4954691;28;20210;-79
2023/08/06 09:44:23;;;;;;;0.70;0.50;;;;;;;16.86;nan;98997.91;4968817;28;20553;-78
2023/08/06 09:46:50;;;;;;;1.52;0.50;;;;;;;16.81;nan;99017.75;4975413;28;20500;-78
2023/08/06 09:49:17;;;;;;;0.70;0.60;;;;;;;16.78;nan;99010.09;4978982;28;20203;-78
2023/08/06 09:51:44;;;;;;;0.67;0.50;;;;;;;16.76;nan;99009.38;4978396;28;20820;-78
2023/08/06 09:54:12;;;;;;;0.70;0.60;;;;;;;16.72;nan;99015.16;4976335;28;21484;-80
2023/08/06 09:56:38;;;;;;;0.60;0.50;;;;;;;16.69;nan;99013.63;4976986;28;20462;-82
2023/08/06 09:59:07;;;;;;;0.80;0.60;;;;;;;16.69;nan;99020.72;4973987;28;20455;-79
2023/08/06 10:01:34;;;;;;;1.10;0.63;;;;;;;16.69;nan;99015.44;4970327;28;20302;-79
2023/08/06 10:04:02;;;;;;;1.47;0.60;;;;;;;16.71;nan;99021.41;4966954;28;21124;-79
2023/08/06 10:06:28;;;;;;;1.20;0.73;;;;;;;16.73;nan;99020.28;4968502;28;20458;-77
2023/08/06 10:08:54;;;;;;;1.30;0.60;;;;;;;16.74;nan;99021.97;4972909;28;20478;-79
2023/08/06 10:11:23;;;;;;;1.07;0.50;;;;;;;16.73;nan;99032.72;4957890;28;20467;-79
2023/08/06 10:13:53;;;;;;;1.40;0.70;;;;;;;16.71;nan;99021.41;4973147;28;20754;-79
2023/08/06 10:16:20;;;;;;;0.80;0.57;;;;;;;16.68;nan;99027.84;4974997;28;20469;-78
2023/08/06 10:18:50;;;;;;;0.70;0.60;;;;;;;16.67;nan;99017.41;4980494;28;20465;-79
2023/08/06 10:21:16;;;;;;;0.80;0.60;;;;;;;16.65;nan;99022.88;4973451;28;20470;-82
2023/08/06 10:23:41;;;;;;;1.10;0.80;;;;;;;16.63;nan;99035.44;4980240;28;20482;-79
2023/08/06 10:26:07;;;;;;;0.80;0.60;;;;;;;16.65;nan;99033.47;4980202;28;20476;-78
2023/08/06 10:28:40;;;;;;;0.70;0.60;;;;;;;16.66;nan;99037.81;4974996;28;20478;-78
2023/08/06 10:31:06;;;;;;;0.82;0.60;;;;;;;16.66;nan;99026.34;4977611;28;20210;-81
2023/08/06 10:33:45;;;;;;;0.70;0.60;;;;;;;16.65;nan;99036.13;4968473;28;20198;-79
2023/08/06 10:36:12;;;;;;;0.83;0.67;;;;;;;16.65;nan;99030.81;4972367;28;20685;-78
2023/08/06 10:38:48;;;;;;;1.40;0.85;;;;;;;16.68;nan;99035.00;4967363;28;20475;-78
2023/08/06 10:41:32;;;;;;;0.68;0.60;;;;;;;16.69;nan;99049.91;4968017;28;20376;-78
2023/08/06 10:44:10;;;;;;;1.85;0.82;;;;;;;16.71;nan;99050.59;4973344;28;20297;-80
2023/08/06 10:46:36;;;;;;;1.98;0.80;;;;;;;16.70;nan;99057.72;4973137;28;20210;-82
2023/08/06 10:49:04;;;;;;;0.60;0.60;;;;;;;16.74;nan;99079.47;4972364;28;20195;-79
2023/08/06 10:51:29;;;;;;;0.93;0.80;;;;;;;16.74;nan;99087.41;4977304;28;20450;-79
2023/08/06 10:53:55;;;;;;;1.00;0.90;;;;;;;16.70;nan;99088.72;4970286;28;20464;-79
2023/08/06 10:56:23;;;;;;;0.90;0.70;;;;;;;16.69;nan;99090.53;4972220;28;20201;-79
2023/08/06 10:58:56;;;;;;;0.60;0.53;;;;;;;16.70;nan;99094.03;4966336;28;20620;-81
2023/08/06 11:01:23;;;;;;;0.70;0.53;;;;;;;16.72;nan;99092.06;4969913;28;21259;-80
2023/08/06 11:03:53;;;;;;;0.70;0.50;;;;;;;16.77;nan;99105.75;4975619;28;20714;-78
2023/08/06 11:06:22;;;;;;;0.90;0.70;;;;;;;16.83;nan;99109.63;4980976;28;20436;-79
2023/08/06 11:08:53;;;;;;;0.80;0.50;;;;;;;16.87;nan;99098.53;4979659;28;20273;-79
2023/08/06 11:11:19;;;;;;;0.80;0.60;;;;;;;16.90;nan;99106.19;4984806;28;20546;-81
2023/08/06 11:13:47;;;;;;;1.73;0.70;;;;;;;16.93;nan;99113.88;4982507;28;20467;-79
2023/08/06 11:16:14;;;;;;;1.63;0.50;;;;;;;16.93;nan;99113.00;4982493;28;20453;-79
2023/08/06 11:18:42;;;;;;;1.00;0.53;;;;;;;16.93;nan;99111.22;4966531;28;20751;-79
2023/08/06 11:21:07;;;;;;;0.80;0.60;;;;;;;16.90;nan;99116.78;4985906;28;20444;-78
2023/08/06 11:23:33;;;;;;;1.80;0.60;;;;;;;16.90;nan;99122.09;4985038;28;20441;-78
2023/08/06 11:25:59;;;;;;;0.80;0.50;;;;;;;16.90;nan;99124.75;4981745;28;20285;-79
2023/08/06 11:28:25;;;;;;;0.60;0.50;;;;;;;16.90;nan;99124.75;4959808;28;20472;-78
2023/08/06 11:30:55;;;;;;;0.60;0.50;;;;;;;16.91;nan;99126.44;4946343;28;20237;-81
2023/08/06 11:33:25;;;;;;;0.67;0.50;;;;;;;16.93;nan;99126.28;4986343;28;20217;-78
2023/08/06 11:35:51;;;;;;;0.60;0.50;;;;;;;16.94;nan;99131.44;4989231;28;21082;-78
2023/08/06 11:38:17;;;;;;;0.70;0.60;;;;;;;16.95;nan;99130.44;4987637;28;20449;-78
2023/08/06 11:40:45;;;;;;;0.70;0.60;;;;;;;16.93;nan;99124.47;4990180;28;20474;-79
2023/08/06 11:43:10;;;;;;;0.70;0.50;;;;;;;16.92;nan;99136.06;4982177;28;20228;-78
2023/08/06 11:45:36;;;;;;;0.60;0.50;;;;;;;16.90;nan;99138.03;4980351;28;20455;-79
2023/08/06 11:48:02;;;;;;;0.80;0.60;;;;;;;16.92;nan;99135.22;4983968;28;20809;-80
2023/08/06 11:50:28;;;;;;;0.70;0.60;;;;;;;16.92;nan;99127.28;4980442;28;20282;-79